sensor_id;sensor_type;location;lat;lon;timestamp;P1;durP1;ratioP1;P2;durP2;ratioP2
16543;SDS011;8384;47.996;7.786;2023-02-28T00:00:41;3.83;;;3.43;;
16543;SDS011;8384;47.996;7.786;2023-02-28T00:03:08;3.70;;;3.40;;
16543;SDS011;8384;47.996;7.786;2023-02-28T00:05:33;3.40;;;3.10;;
16543;SDS011;8384;47.996;7.786;2023-02-28T00:07:58;3.60;;;3.30;;
16543;SDS011;8384;47.996;7.786;2023-02-28T00:10:27;3.50;;;3.20;;
16543;SDS011;8384;47.996;7.786;2023-02-28T00:12:56;3.53;;;3.22;;
16543;SDS011;8384;47.996;7.786;2023-02-28T00:15:25;3.60;;;3.30;;
16543;SDS011;8384;47.996;7.786;2023-02-28T00:17:50;3.43;;;3.13;;
16543;SDS011;8384;47.996;7.786;2023-02-28T00:20:16;3.42;;;3.00;;
16543;SDS011;8384;47.996;7.786;2023-02-28T00:22:43;3.60;;;3.30;;
16543;SDS011;8384;47.996;7.786;2023-02-28T00:25:10;3.42;;;3.13;;
16543;SDS011;8384;47.996;7.786;2023-02-28T00:27:37;3.53;;;3.22;;
16543;SDS011;8384;47.996;7.786;2023-02-28T00:30:04;3.50;;;3.20;;
16543;SDS011;8384;47.996;7.786;2023-02-28T00:32:31;3.50;;;3.20;;
16543;SDS011;8384;47.996;7.786;2023-02-28T00:34:56;3.65;;;3.17;;
16543;SDS011;8384;47.996;7.786;2023-02-28T00:37:21;3.67;;;3.30;;
16543;SDS011;8384;47.996;7.786;2023-02-28T00:39:47;3.63;;;3.20;;
16543;SDS011;8384;47.996;7.786;2023-02-28T00:42:12;3.57;;;3.27;;
16543;SDS011;8384;47.996;7.786;2023-02-28T00:44:37;3.77;;;3.43;;
16543;SDS011;8384;47.996;7.786;2023-02-28T00:47:03;3.57;;;3.27;;
16543;SDS011;8384;47.996;7.786;2023-02-28T00:49:28;3.90;;;3.35;;
16543;SDS011;8384;47.996;7.786;2023-02-28T00:51:54;3.90;;;3.60;;
16543;SDS011;8384;47.996;7.786;2023-02-28T00:54:20;4.10;;;3.70;;
16543;SDS011;8384;47.996;7.786;2023-02-28T00:56:46;4.10;;;3.60;;
16543;SDS011;8384;47.996;7.786;2023-02-28T00:59:15;3.90;;;3.50;;
16543;SDS011;8384;47.996;7.786;2023-02-28T01:01:42;4.53;;;4.10;;
16543;SDS011;8384;47.996;7.786;2023-02-28T01:04:09;4.25;;;3.63;;
16543;SDS011;8384;47.996;7.786;2023-02-28T01:06:34;4.20;;;3.80;;
16543;SDS011;8384;47.996;7.786;2023-02-28T01:09:00;4.28;;;3.88;;
16543;SDS011;8384;47.996;7.786;2023-02-28T01:11:26;3.87;;;3.53;;
16543;SDS011;8384;47.996;7.786;2023-02-28T01:13:51;3.90;;;3.60;;
16543;SDS011;8384;47.996;7.786;2023-02-28T01:16:16;3.90;;;3.60;;
16543;SDS011;8384;47.996;7.786;2023-02-28T01:18:42;3.90;;;3.47;;
16543;SDS011;8384;47.996;7.786;2023-02-28T01:21:08;3.90;;;3.57;;
16543;SDS011;8384;47.996;7.786;2023-02-28T01:23:39;3.90;;;3.50;;
16543;SDS011;8384;47.996;7.786;2023-02-28T01:26:08;4.07;;;3.67;;
16543;SDS011;8384;47.996;7.786;2023-02-28T01:28:38;4.20;;;3.80;;
16543;SDS011;8384;47.996;7.786;2023-02-28T01:31:03;3.80;;;3.50;;
16543;SDS011;8384;47.996;7.786;2023-02-28T01:33:29;3.70;;;3.40;;
16543;SDS011;8384;47.996;7.786;2023-02-28T01:36:28;4.00;;;3.60;;
16543;SDS011;8384;47.996;7.786;2023-02-28T01:38:48;4.00;;;3.60;;
16543;SDS011;8384;47.996;7.786;2023-02-28T01:41:18;4.35;;;3.95;;
16543;SDS011;8384;47.996;7.786;2023-02-28T01:46:13;5.17;;;3.77;;
16543;SDS011;8384;47.996;7.786;2023-02-28T01:48:53;4.00;;;3.60;;
16543;SDS011;8384;47.996;7.786;2023-02-28T01:51:29;3.80;;;3.50;;
16543;SDS011;8384;47.996;7.786;2023-02-28T01:54:01;3.88;;;3.53;;
16543;SDS011;8384;47.996;7.786;2023-02-28T01:56:30;4.25;;;3.85;;
16543;SDS011;8384;47.996;7.786;2023-02-28T01:58:59;4.25;;;3.80;;
16543;SDS011;8384;47.996;7.786;2023-02-28T02:01:25;4.00;;;3.60;;
16543;SDS011;8384;47.996;7.786;2023-02-28T02:03:55;5.70;;;4.18;;
16543;SDS011;8384;47.996;7.786;2023-02-28T02:06:34;5.80;;;5.20;;
16543;SDS011;8384;47.996;7.786;2023-02-28T02:09:03;3.97;;;3.50;;
16543;SDS011;8384;47.996;7.786;2023-02-28T02:11:29;4.28;;;3.80;;
16543;SDS011;8384;47.996;7.786;2023-02-28T02:13:59;4.20;;;3.90;;
16543;SDS011;8384;47.996;7.786;2023-02-28T02:16:44;4.18;;;3.78;;
16543;SDS011;8384;47.996;7.786;2023-02-28T02:22:51;4.50;;;4.10;;
16543;SDS011;8384;47.996;7.786;2023-02-28T02:25:40;4.28;;;3.75;;
16543;SDS011;8384;47.996;7.786;2023-02-28T02:36:31;4.82;;;4.00;;
16543;SDS011;8384;47.996;7.786;2023-02-28T02:41:53;4.25;;;3.85;;
16543;SDS011;8384;47.996;7.786;2023-02-28T02:44:27;3.97;;;3.63;;
16543;SDS011;8384;47.996;7.786;2023-02-28T02:47:01;4.55;;;4.13;;
16543;SDS011;8384;47.996;7.786;2023-02-28T02:49:33;4.38;;;4.00;;
16543;SDS011;8384;47.996;7.786;2023-02-28T02:52:03;4.50;;;4.10;;
16543;SDS011;8384;47.996;7.786;2023-02-28T02:54:33;4.63;;;4.22;;
16543;SDS011;8384;47.996;7.786;2023-02-28T02:57:03;4.82;;;4.32;;
16543;SDS011;8384;47.996;7.786;2023-02-28T02:59:33;4.35;;;3.97;;
16543;SDS011;8384;47.996;7.786;2023-02-28T03:02:03;4.50;;;4.10;;
16543;SDS011;8384;47.996;7.786;2023-02-28T03:04:32;4.78;;;4.25;;
16543;SDS011;8384;47.996;7.786;2023-02-28T03:07:03;4.53;;;4.13;;
16543;SDS011;8384;47.996;7.786;2023-02-28T03:09:28;4.45;;;4.05;;
16543;SDS011;8384;47.996;7.786;2023-02-28T03:11:57;4.38;;;3.97;;
16543;SDS011;8384;47.996;7.786;2023-02-28T03:17:08;5.10;;;4.60;;
16543;SDS011;8384;47.996;7.786;2023-02-28T03:25:22;4.78;;;4.38;;
16543;SDS011;8384;47.996;7.786;2023-02-28T03:28:15;4.45;;;4.05;;
16543;SDS011;8384;47.996;7.786;2023-02-28T03:33:26;4.45;;;4.05;;
16543;SDS011;8384;47.996;7.786;2023-02-28T03:35:55;4.50;;;3.90;;
16543;SDS011;8384;47.996;7.786;2023-02-28T03:41:00;4.80;;;4.40;;
16543;SDS011;8384;47.996;7.786;2023-02-28T03:43:32;4.50;;;4.10;;
16543;SDS011;8384;47.996;7.786;2023-02-28T03:46:01;4.25;;;3.80;;
16543;SDS011;8384;47.996;7.786;2023-02-28T03:48:32;4.25;;;3.80;;
16543;SDS011;8384;47.996;7.786;2023-02-28T03:51:04;4.20;;;3.80;;
16543;SDS011;8384;47.996;7.786;2023-02-28T03:53:35;4.35;;;3.95;;
16543;SDS011;8384;47.996;7.786;2023-02-28T04:01:38;4.40;;;4.00;;
16543;SDS011;8384;47.996;7.786;2023-02-28T04:04:06;4.82;;;4.22;;
16543;SDS011;8384;47.996;7.786;2023-02-28T04:06:33;4.63;;;4.15;;
16543;SDS011;8384;47.996;7.786;2023-02-28T04:08:59;4.65;;;4.22;;
16543;SDS011;8384;47.996;7.786;2023-02-28T04:11:28;4.30;;;3.90;;
16543;SDS011;8384;47.996;7.786;2023-02-28T04:14:02;4.50;;;4.10;;
16543;SDS011;8384;47.996;7.786;2023-02-28T04:16:30;4.78;;;4.38;;
16543;SDS011;8384;47.996;7.786;2023-02-28T04:18:56;4.70;;;4.30;;
16543;SDS011;8384;47.996;7.786;2023-02-28T04:21:27;4.65;;;4.25;;
16543;SDS011;8384;47.996;7.786;2023-02-28T04:23:59;4.55;;;4.07;;
16543;SDS011;8384;47.996;7.786;2023-02-28T04:26:27;4.75;;;4.00;;
16543;SDS011;8384;47.996;7.786;2023-02-28T04:28:54;4.55;;;4.15;;
16543;SDS011;8384;47.996;7.786;2023-02-28T04:31:20;4.60;;;4.10;;
16543;SDS011;8384;47.996;7.786;2023-02-28T04:33:45;4.50;;;4.07;;
16543;SDS011;8384;47.996;7.786;2023-02-28T04:36:10;4.60;;;4.20;;
16543;SDS011;8384;47.996;7.786;2023-02-28T04:38:36;4.30;;;4.00;;
16543;SDS011;8384;47.996;7.786;2023-02-28T04:41:03;5.10;;;4.60;;
16543;SDS011;8384;47.996;7.786;2023-02-28T04:43:29;5.07;;;4.60;;
16543;SDS011;8384;47.996;7.786;2023-02-28T04:45:57;4.65;;;4.25;;
16543;SDS011;8384;47.996;7.786;2023-02-28T04:48:27;4.80;;;4.40;;
16543;SDS011;8384;47.996;7.786;2023-02-28T04:50:53;4.78;;;4.38;;
16543;SDS011;8384;47.996;7.786;2023-02-28T04:53:18;4.60;;;4.20;;
16543;SDS011;8384;47.996;7.786;2023-02-28T04:55:44;4.90;;;4.43;;
16543;SDS011;8384;47.996;7.786;2023-02-28T04:58:10;4.75;;;4.35;;
16543;SDS011;8384;47.996;7.786;2023-02-28T05:00:35;4.87;;;4.37;;
16543;SDS011;8384;47.996;7.786;2023-02-28T05:03:00;4.68;;;4.28;;
16543;SDS011;8384;47.996;7.786;2023-02-28T05:05:26;5.00;;;4.60;;
16543;SDS011;8384;47.996;7.786;2023-02-28T05:07:51;4.80;;;4.40;;
16543;SDS011;8384;47.996;7.786;2023-02-28T05:10:18;4.97;;;4.57;;
16543;SDS011;8384;47.996;7.786;2023-02-28T05:12:43;5.10;;;4.70;;
16543;SDS011;8384;47.996;7.786;2023-02-28T05:15:11;5.20;;;4.80;;
16543;SDS011;8384;47.996;7.786;2023-02-28T05:17:38;4.88;;;4.47;;
16543;SDS011;8384;47.996;7.786;2023-02-28T05:20:03;5.10;;;4.60;;
16543;SDS011;8384;47.996;7.786;2023-02-28T05:22:29;5.25;;;4.85;;
16543;SDS011;8384;47.996;7.786;2023-02-28T05:24:55;5.23;;;4.83;;
16543;SDS011;8384;47.996;7.786;2023-02-28T05:27:20;5.13;;;4.70;;
16543;SDS011;8384;47.996;7.786;2023-02-28T05:29:45;5.13;;;4.73;;
16543;SDS011;8384;47.996;7.786;2023-02-28T05:32:11;5.07;;;4.63;;
16543;SDS011;8384;47.996;7.786;2023-02-28T05:34:37;5.30;;;4.83;;
16543;SDS011;8384;47.996;7.786;2023-02-28T05:37:04;5.18;;;4.78;;
16543;SDS011;8384;47.996;7.786;2023-02-28T05:39:30;5.50;;;5.00;;
16543;SDS011;8384;47.996;7.786;2023-02-28T05:41:55;5.33;;;4.83;;
16543;SDS011;8384;47.996;7.786;2023-02-28T05:44:20;5.33;;;4.80;;
16543;SDS011;8384;47.996;7.786;2023-02-28T05:46:46;5.03;;;4.60;;
16543;SDS011;8384;47.996;7.786;2023-02-28T05:49:11;5.57;;;5.07;;
16543;SDS011;8384;47.996;7.786;2023-02-28T05:51:36;5.50;;;5.00;;
16543;SDS011;8384;47.996;7.786;2023-02-28T05:54:04;5.75;;;5.25;;
16543;SDS011;8384;47.996;7.786;2023-02-28T05:56:30;6.03;;;5.53;;
16543;SDS011;8384;47.996;7.786;2023-02-28T05:58:56;6.38;;;5.88;;
16543;SDS011;8384;47.996;7.786;2023-02-28T06:01:35;6.23;;;5.63;;
16543;SDS011;8384;47.996;7.786;2023-02-28T06:04:13;5.90;;;5.30;;
16543;SDS011;8384;47.996;7.786;2023-02-28T06:06:42;6.00;;;5.50;;
16543;SDS011;8384;47.996;7.786;2023-02-28T06:09:07;6.17;;;5.67;;
16543;SDS011;8384;47.996;7.786;2023-02-28T06:11:33;6.30;;;5.70;;
16543;SDS011;8384;47.996;7.786;2023-02-28T06:13:59;6.67;;;6.07;;
16543;SDS011;8384;47.996;7.786;2023-02-28T06:16:25;6.40;;;5.90;;
16543;SDS011;8384;47.996;7.786;2023-02-28T06:18:52;6.43;;;5.93;;
16543;SDS011;8384;47.996;7.786;2023-02-28T06:21:23;6.43;;;5.93;;
16543;SDS011;8384;47.996;7.786;2023-02-28T06:23:48;6.80;;;6.20;;
16543;SDS011;8384;47.996;7.786;2023-02-28T06:26:14;6.47;;;5.93;;
16543;SDS011;8384;47.996;7.786;2023-02-28T06:28:39;6.85;;;6.25;;
16543;SDS011;8384;47.996;7.786;2023-02-28T06:31:06;6.70;;;6.10;;
16543;SDS011;8384;47.996;7.786;2023-02-28T06:33:33;7.03;;;6.40;;
16543;SDS011;8384;47.996;7.786;2023-02-28T06:35:58;7.30;;;6.60;;
16543;SDS011;8384;47.996;7.786;2023-02-28T06:38:23;7.03;;;6.43;;
16543;SDS011;8384;47.996;7.786;2023-02-28T06:40:52;7.23;;;6.57;;
16543;SDS011;8384;47.996;7.786;2023-02-28T06:43:22;7.75;;;6.40;;
16543;SDS011;8384;47.996;7.786;2023-02-28T06:45:48;7.63;;;6.93;;
16543;SDS011;8384;47.996;7.786;2023-02-28T06:48:13;7.27;;;6.67;;
16543;SDS011;8384;47.996;7.786;2023-02-28T06:50:38;6.87;;;6.30;;
16543;SDS011;8384;47.996;7.786;2023-02-28T06:53:03;7.32;;;6.72;;
16543;SDS011;8384;47.996;7.786;2023-02-28T06:55:29;7.13;;;6.53;;
16543;SDS011;8384;47.996;7.786;2023-02-28T06:57:54;6.93;;;6.33;;
16543;SDS011;8384;47.996;7.786;2023-02-28T07:00:20;7.20;;;6.60;;
16543;SDS011;8384;47.996;7.786;2023-02-28T07:02:45;7.45;;;6.85;;
16543;SDS011;8384;47.996;7.786;2023-02-28T07:05:12;7.32;;;6.70;;
16543;SDS011;8384;47.996;7.786;2023-02-28T07:07:37;7.90;;;7.20;;
16543;SDS011;8384;47.996;7.786;2023-02-28T07:10:05;7.03;;;6.43;;
16543;SDS011;8384;47.996;7.786;2023-02-28T07:12:31;7.30;;;6.70;;
16543;SDS011;8384;47.996;7.786;2023-02-28T07:14:56;6.97;;;6.40;;
16543;SDS011;8384;47.996;7.786;2023-02-28T07:17:21;7.13;;;6.53;;
16543;SDS011;8384;47.996;7.786;2023-02-28T07:19:47;6.97;;;6.43;;
16543;SDS011;8384;47.996;7.786;2023-02-28T07:22:12;7.20;;;6.60;;
16543;SDS011;8384;47.996;7.786;2023-02-28T07:24:37;7.15;;;6.55;;
16543;SDS011;8384;47.996;7.786;2023-02-28T07:27:03;6.70;;;6.10;;
16543;SDS011;8384;47.996;7.786;2023-02-28T07:29:28;7.17;;;6.50;;
16543;SDS011;8384;47.996;7.786;2023-02-28T07:31:54;7.00;;;6.40;;
16543;SDS011;8384;47.996;7.786;2023-02-28T07:34:19;7.20;;;6.60;;
16543;SDS011;8384;47.996;7.786;2023-02-28T07:36:45;6.90;;;6.30;;
16543;SDS011;8384;47.996;7.786;2023-02-28T07:39:10;6.97;;;6.37;;
16543;SDS011;8384;47.996;7.786;2023-02-28T07:41:36;6.87;;;6.17;;
16543;SDS011;8384;47.996;7.786;2023-02-28T07:44:08;6.93;;;6.32;;
16543;SDS011;8384;47.996;7.786;2023-02-28T07:46:33;7.37;;;6.77;;
16543;SDS011;8384;47.996;7.786;2023-02-28T07:49:00;6.72;;;6.13;;
16543;SDS011;8384;47.996;7.786;2023-02-28T07:51:27;7.00;;;6.30;;
16543;SDS011;8384;47.996;7.786;2023-02-28T07:53:56;6.88;;;6.28;;
16543;SDS011;8384;47.996;7.786;2023-02-28T07:56:22;6.68;;;6.03;;
16543;SDS011;8384;47.996;7.786;2023-02-28T07:58:47;6.90;;;6.20;;
16543;SDS011;8384;47.996;7.786;2023-02-28T08:01:13;6.30;;;5.80;;
16543;SDS011;8384;47.996;7.786;2023-02-28T08:03:39;6.72;;;6.13;;
16543;SDS011;8384;47.996;7.786;2023-02-28T08:06:06;6.82;;;6.22;;
16543;SDS011;8384;47.996;7.786;2023-02-28T08:08:33;6.57;;;5.97;;
16543;SDS011;8384;47.996;7.786;2023-02-28T08:10:59;6.77;;;6.10;;
16543;SDS011;8384;47.996;7.786;2023-02-28T08:13:26;6.80;;;6.20;;
16543;SDS011;8384;47.996;7.786;2023-02-28T08:15:52;6.88;;;6.28;;
16543;SDS011;8384;47.996;7.786;2023-02-28T08:18:19;6.80;;;6.30;;
16543;SDS011;8384;47.996;7.786;2023-02-28T08:20:44;7.70;;;6.03;;
16543;SDS011;8384;47.996;7.786;2023-02-28T08:23:09;6.57;;;6.07;;
16543;SDS011;8384;47.996;7.786;2023-02-28T08:25:35;6.73;;;6.13;;
16543;SDS011;8384;47.996;7.786;2023-02-28T08:28:00;6.80;;;6.20;;
16543;SDS011;8384;47.996;7.786;2023-02-28T08:30:25;7.00;;;6.40;;
16543;SDS011;8384;47.996;7.786;2023-02-28T08:32:50;6.78;;;6.28;;
16543;SDS011;8384;47.996;7.786;2023-02-28T08:35:16;6.90;;;6.30;;
16543;SDS011;8384;47.996;7.786;2023-02-28T08:37:41;6.73;;;6.23;;
16543;SDS011;8384;47.996;7.786;2023-02-28T08:40:06;7.23;;;6.63;;
16543;SDS011;8384;47.996;7.786;2023-02-28T08:42:32;6.88;;;6.30;;
16543;SDS011;8384;47.996;7.786;2023-02-28T08:44:58;7.20;;;6.60;;
16543;SDS011;8384;47.996;7.786;2023-02-28T08:47:23;7.10;;;6.50;;
16543;SDS011;8384;47.996;7.786;2023-02-28T08:49:48;7.40;;;6.70;;
16543;SDS011;8384;47.996;7.786;2023-02-28T08:52:14;7.80;;;7.10;;
16543;SDS011;8384;47.996;7.786;2023-02-28T08:54:39;7.35;;;6.75;;
16543;SDS011;8384;47.996;7.786;2023-02-28T08:57:04;7.20;;;6.63;;
16543;SDS011;8384;47.996;7.786;2023-02-28T08:59:30;7.37;;;6.67;;
16543;SDS011;8384;47.996;7.786;2023-02-28T09:01:55;7.80;;;7.00;;
16543;SDS011;8384;47.996;7.786;2023-02-28T09:04:21;7.28;;;6.60;;
16543;SDS011;8384;47.996;7.786;2023-02-28T09:06:47;7.05;;;6.55;;
16543;SDS011;8384;47.996;7.786;2023-02-28T09:09:13;7.10;;;6.43;;
16543;SDS011;8384;47.996;7.786;2023-02-28T09:11:39;7.55;;;6.85;;
16543;SDS011;8384;47.996;7.786;2023-02-28T09:14:04;7.87;;;7.17;;
16543;SDS011;8384;47.996;7.786;2023-02-28T09:16:30;7.73;;;7.10;;
16543;SDS011;8384;47.996;7.786;2023-02-28T09:18:56;7.82;;;7.22;;
16543;SDS011;8384;47.996;7.786;2023-02-28T09:21:21;7.33;;;6.73;;
16543;SDS011;8384;47.996;7.786;2023-02-28T09:23:47;7.60;;;7.00;;
16543;SDS011;8384;47.996;7.786;2023-02-28T09:26:15;8.05;;;7.35;;
16543;SDS011;8384;47.996;7.786;2023-02-28T09:28:41;7.65;;;6.97;;
16543;SDS011;8384;47.996;7.786;2023-02-28T09:31:06;7.40;;;6.80;;
16543;SDS011;8384;47.996;7.786;2023-02-28T09:33:31;7.50;;;6.90;;
16543;SDS011;8384;47.996;7.786;2023-02-28T09:35:58;8.30;;;7.57;;
16543;SDS011;8384;47.996;7.786;2023-02-28T09:38:25;7.80;;;7.15;;
16543;SDS011;8384;47.996;7.786;2023-02-28T09:40:55;7.60;;;6.80;;
16543;SDS011;8384;47.996;7.786;2023-02-28T09:43:24;8.15;;;7.55;;
16543;SDS011;8384;47.996;7.786;2023-02-28T09:46:14;8.10;;;7.50;;
16543;SDS011;8384;47.996;7.786;2023-02-28T09:48:44;8.15;;;7.50;;
16543;SDS011;8384;47.996;7.786;2023-02-28T09:53:57;7.50;;;6.90;;
16543;SDS011;8384;47.996;7.786;2023-02-28T09:56:33;8.07;;;7.43;;
16543;SDS011;8384;47.996;7.786;2023-02-28T09:59:12;8.43;;;7.63;;
16543;SDS011;8384;47.996;7.786;2023-02-28T10:02:09;8.18;;;7.47;;
16543;SDS011;8384;47.996;7.786;2023-02-28T10:04:58;8.00;;;7.40;;
16543;SDS011;8384;47.996;7.786;2023-02-28T10:07:47;7.83;;;7.23;;
16543;SDS011;8384;47.996;7.786;2023-02-28T10:10:29;8.07;;;7.43;;
16543;SDS011;8384;47.996;7.786;2023-02-28T10:13:04;7.78;;;7.07;;
16543;SDS011;8384;47.996;7.786;2023-02-28T10:15:37;7.95;;;7.35;;
16543;SDS011;8384;47.996;7.786;2023-02-28T10:18:04;7.90;;;7.30;;
16543;SDS011;8384;47.996;7.786;2023-02-28T10:20:37;7.70;;;7.10;;
16543;SDS011;8384;47.996;7.786;2023-02-28T10:23:11;7.50;;;6.80;;
16543;SDS011;8384;47.996;7.786;2023-02-28T10:25:41;7.72;;;7.13;;
16543;SDS011;8384;47.996;7.786;2023-02-28T10:28:13;7.63;;;7.03;;
16543;SDS011;8384;47.996;7.786;2023-02-28T10:30:41;7.65;;;6.97;;
16543;SDS011;8384;47.996;7.786;2023-02-28T10:33:32;7.18;;;6.68;;
16543;SDS011;8384;47.996;7.786;2023-02-28T10:35:57;7.70;;;7.10;;
16543;SDS011;8384;47.996;7.786;2023-02-28T10:38:37;7.43;;;6.82;;
16543;SDS011;8384;47.996;7.786;2023-02-28T10:43:49;7.53;;;6.93;;
16543;SDS011;8384;47.996;7.786;2023-02-28T10:46:15;8.00;;;7.33;;
16543;SDS011;8384;47.996;7.786;2023-02-28T10:48:57;7.60;;;7.00;;
16543;SDS011;8384;47.996;7.786;2023-02-28T10:51:26;7.40;;;6.80;;
16543;SDS011;8384;47.996;7.786;2023-02-28T10:54:01;7.70;;;7.10;;
16543;SDS011;8384;47.996;7.786;2023-02-28T10:56:28;7.50;;;6.90;;
16543;SDS011;8384;47.996;7.786;2023-02-28T10:58:57;8.03;;;7.33;;
16543;SDS011;8384;47.996;7.786;2023-02-28T11:01:34;7.50;;;6.90;;
16543;SDS011;8384;47.996;7.786;2023-02-28T11:04:17;7.60;;;7.00;;
16543;SDS011;8384;47.996;7.786;2023-02-28T11:06:43;7.90;;;7.25;;
16543;SDS011;8384;47.996;7.786;2023-02-28T11:09:28;8.23;;;7.63;;
16543;SDS011;8384;47.996;7.786;2023-02-28T11:12:21;8.00;;;7.40;;
16543;SDS011;8384;47.996;7.786;2023-02-28T11:14:47;8.73;;;8.02;;
16543;SDS011;8384;47.996;7.786;2023-02-28T11:17:23;7.67;;;7.07;;
16543;SDS011;8384;47.996;7.786;2023-02-28T11:19:51;7.63;;;7.07;;
16543;SDS011;8384;47.996;7.786;2023-02-28T11:22:23;7.78;;;7.18;;
16543;SDS011;8384;47.996;7.786;2023-02-28T11:24:53;8.27;;;7.68;;
16543;SDS011;8384;47.996;7.786;2023-02-28T11:29:55;7.68;;;7.13;;
16543;SDS011;8384;47.996;7.786;2023-02-28T11:32:22;8.77;;;8.10;;
16543;SDS011;8384;47.996;7.786;2023-02-28T11:37:33;8.00;;;7.30;;
16543;SDS011;8384;47.996;7.786;2023-02-28T11:39:59;8.07;;;7.37;;
16543;SDS011;8384;47.996;7.786;2023-02-28T11:42:31;8.50;;;7.70;;
16543;SDS011;8384;47.996;7.786;2023-02-28T11:50:42;7.70;;;7.10;;
16543;SDS011;8384;47.996;7.786;2023-02-28T11:58:55;7.88;;;7.28;;
16543;SDS011;8384;47.996;7.786;2023-02-28T12:01:33;8.20;;;7.60;;
16543;SDS011;8384;47.996;7.786;2023-02-28T12:07:16;7.80;;;7.20;;
16543;SDS011;8384;47.996;7.786;2023-02-28T12:21:27;8.43;;;7.72;;
16543;SDS011;8384;47.996;7.786;2023-02-28T12:26:46;8.73;;;7.93;;
16543;SDS011;8384;47.996;7.786;2023-02-28T12:32:04;8.90;;;8.20;;
16543;SDS011;8384;47.996;7.786;2023-02-28T12:34:38;8.40;;;7.80;;
16543;SDS011;8384;47.996;7.786;2023-02-28T12:37:16;7.90;;;7.20;;
16543;SDS011;8384;47.996;7.786;2023-02-28T12:39:48;8.10;;;7.50;;
16543;SDS011;8384;47.996;7.786;2023-02-28T12:42:28;8.52;;;7.82;;
16543;SDS011;8384;47.996;7.786;2023-02-28T12:44:58;8.43;;;7.80;;
16543;SDS011;8384;47.996;7.786;2023-02-28T12:47:26;8.70;;;8.05;;
16543;SDS011;8384;47.996;7.786;2023-02-28T12:50:08;8.80;;;8.03;;
16543;SDS011;8384;47.996;7.786;2023-02-28T12:55:40;8.48;;;7.80;;
16543;SDS011;8384;47.996;7.786;2023-02-28T12:58:31;8.52;;;7.93;;
16543;SDS011;8384;47.996;7.786;2023-02-28T13:01:06;8.38;;;7.78;;
16543;SDS011;8384;47.996;7.786;2023-02-28T13:04:01;8.55;;;7.85;;
16543;SDS011;8384;47.996;7.786;2023-02-28T13:09:32;8.82;;;8.13;;
16543;SDS011;8384;47.996;7.786;2023-02-28T13:11:58;8.83;;;8.10;;
16543;SDS011;8384;47.996;7.786;2023-02-28T13:14:35;8.93;;;8.20;;
16543;SDS011;8384;47.996;7.786;2023-02-28T13:24:54;8.63;;;7.93;;
16543;SDS011;8384;47.996;7.786;2023-02-28T13:27:35;9.13;;;8.43;;
16543;SDS011;8384;47.996;7.786;2023-02-28T13:38:47;8.80;;;8.18;;
16543;SDS011;8384;47.996;7.786;2023-02-28T13:57:33;10.40;;;9.50;;
16543;SDS011;8384;47.996;7.786;2023-02-28T14:05:40;9.50;;;8.80;;
16543;SDS011;8384;47.996;7.786;2023-02-28T14:08:07;9.95;;;9.10;;
16543;SDS011;8384;47.996;7.786;2023-02-28T14:16:09;9.50;;;8.70;;
16543;SDS011;8384;47.996;7.786;2023-02-28T14:18:40;10.15;;;9.35;;
16543;SDS011;8384;47.996;7.786;2023-02-28T14:21:09;10.25;;;9.35;;
16543;SDS011;8384;47.996;7.786;2023-02-28T14:29:17;10.47;;;9.67;;
16543;SDS011;8384;47.996;7.786;2023-02-28T14:31:58;10.37;;;9.57;;
16543;SDS011;8384;47.996;7.786;2023-02-28T14:37:08;10.80;;;9.90;;
16543;SDS011;8384;47.996;7.786;2023-02-28T14:39:40;10.85;;;9.95;;
16543;SDS011;8384;47.996;7.786;2023-02-28T14:42:24;11.55;;;10.52;;
16543;SDS011;8384;47.996;7.786;2023-02-28T14:44:53;10.90;;;10.00;;
16543;SDS011;8384;47.996;7.786;2023-02-28T14:47:21;11.05;;;10.15;;
16543;SDS011;8384;47.996;7.786;2023-02-28T14:49:50;11.63;;;10.63;;
16543;SDS011;8384;47.996;7.786;2023-02-28T14:52:23;11.40;;;10.40;;
16543;SDS011;8384;47.996;7.786;2023-02-28T14:54:53;10.80;;;9.90;;
16543;SDS011;8384;47.996;7.786;2023-02-28T14:57:24;11.00;;;10.10;;
16543;SDS011;8384;47.996;7.786;2023-02-28T14:59:59;10.82;;;9.93;;
16543;SDS011;8384;47.996;7.786;2023-02-28T15:02:39;11.25;;;10.35;;
16543;SDS011;8384;47.996;7.786;2023-02-28T15:07:34;11.75;;;10.75;;
16543;SDS011;8384;47.996;7.786;2023-02-28T15:10:07;12.10;;;11.10;;
16543;SDS011;8384;47.996;7.786;2023-02-28T15:15:46;11.55;;;10.55;;
16543;SDS011;8384;47.996;7.786;2023-02-28T15:21:21;11.43;;;10.52;;
16543;SDS011;8384;47.996;7.786;2023-02-28T15:23:51;12.00;;;11.00;;
16543;SDS011;8384;47.996;7.786;2023-02-28T15:26:20;11.32;;;10.43;;
16543;SDS011;8384;47.996;7.786;2023-02-28T15:28:56;11.38;;;10.48;;
16543;SDS011;8384;47.996;7.786;2023-02-28T15:31:28;11.57;;;10.68;;
16543;SDS011;8384;47.996;7.786;2023-02-28T15:33:57;10.90;;;9.90;;
16543;SDS011;8384;47.996;7.786;2023-02-28T15:36:29;10.90;;;10.00;;
16543;SDS011;8384;47.996;7.786;2023-02-28T15:38:56;11.35;;;10.35;;
16543;SDS011;8384;47.996;7.786;2023-02-28T15:41:25;11.53;;;10.53;;
16543;SDS011;8384;47.996;7.786;2023-02-28T15:46:43;11.23;;;10.23;;
16543;SDS011;8384;47.996;7.786;2023-02-28T15:49:20;11.90;;;10.90;;
16543;SDS011;8384;47.996;7.786;2023-02-28T15:51:48;11.35;;;10.35;;
16543;SDS011;8384;47.996;7.786;2023-02-28T15:54:18;11.68;;;10.68;;
16543;SDS011;8384;47.996;7.786;2023-02-28T15:56:53;12.02;;;11.00;;
16543;SDS011;8384;47.996;7.786;2023-02-28T15:59:23;10.90;;;10.00;;
16543;SDS011;8384;47.996;7.786;2023-02-28T16:04:35;12.48;;;11.38;;
16543;SDS011;8384;47.996;7.786;2023-02-28T16:07:02;11.70;;;10.70;;
16543;SDS011;8384;47.996;7.786;2023-02-28T16:09:31;13.20;;;12.10;;
16543;SDS011;8384;47.996;7.786;2023-02-28T16:11:59;11.73;;;10.73;;
16543;SDS011;8384;47.996;7.786;2023-02-28T16:14:27;12.18;;;11.18;;
16543;SDS011;8384;47.996;7.786;2023-02-28T16:16:56;12.32;;;11.32;;
16543;SDS011;8384;47.996;7.786;2023-02-28T16:19:26;11.93;;;10.93;;
16543;SDS011;8384;47.996;7.786;2023-02-28T16:21:52;10.80;;;10.00;;
16543;SDS011;8384;47.996;7.786;2023-02-28T16:24:17;11.47;;;10.57;;
16543;SDS011;8384;47.996;7.786;2023-02-28T16:26:44;11.50;;;10.40;;
16543;SDS011;8384;47.996;7.786;2023-02-28T16:29:18;11.60;;;10.70;;
16543;SDS011;8384;47.996;7.786;2023-02-28T16:31:49;10.57;;;9.73;;
16543;SDS011;8384;47.996;7.786;2023-02-28T16:34:14;11.00;;;10.10;;
16543;SDS011;8384;47.996;7.786;2023-02-28T16:36:40;11.00;;;10.10;;
16543;SDS011;8384;47.996;7.786;2023-02-28T16:39:06;11.20;;;10.38;;
16543;SDS011;8384;47.996;7.786;2023-02-28T16:41:31;12.23;;;11.23;;
16543;SDS011;8384;47.996;7.786;2023-02-28T16:43:56;11.17;;;10.20;;
16543;SDS011;8384;47.996;7.786;2023-02-28T16:46:26;11.50;;;10.52;;
16543;SDS011;8384;47.996;7.786;2023-02-28T16:48:54;11.88;;;10.88;;
16543;SDS011;8384;47.996;7.786;2023-02-28T16:51:19;13.70;;;12.60;;
16543;SDS011;8384;47.996;7.786;2023-02-28T16:53:45;11.83;;;10.83;;
16543;SDS011;8384;47.996;7.786;2023-02-28T16:56:15;12.68;;;11.57;;
16543;SDS011;8384;47.996;7.786;2023-02-28T16:58:43;12.83;;;11.73;;
16543;SDS011;8384;47.996;7.786;2023-02-28T17:01:09;14.23;;;13.02;;
16543;SDS011;8384;47.996;7.786;2023-02-28T17:03:35;13.13;;;11.93;;
16543;SDS011;8384;47.996;7.786;2023-02-28T17:06:01;14.00;;;12.80;;
16543;SDS011;8384;47.996;7.786;2023-02-28T17:08:27;14.00;;;12.80;;
16543;SDS011;8384;47.996;7.786;2023-02-28T17:10:54;13.30;;;12.20;;
16543;SDS011;8384;47.996;7.786;2023-02-28T17:13:19;13.77;;;12.67;;
16543;SDS011;8384;47.996;7.786;2023-02-28T17:15:45;13.27;;;12.07;;
16543;SDS011;8384;47.996;7.786;2023-02-28T17:18:15;14.50;;;13.20;;
16543;SDS011;8384;47.996;7.786;2023-02-28T17:20:43;14.50;;;13.20;;
16543;SDS011;8384;47.996;7.786;2023-02-28T17:23:10;13.02;;;11.98;;
16543;SDS011;8384;47.996;7.786;2023-02-28T17:25:35;12.70;;;11.68;;
16543;SDS011;8384;47.996;7.786;2023-02-28T17:28:01;13.30;;;12.13;;
16543;SDS011;8384;47.996;7.786;2023-02-28T17:30:26;13.53;;;12.37;;
16543;SDS011;8384;47.996;7.786;2023-02-28T17:32:55;13.52;;;12.35;;
16543;SDS011;8384;47.996;7.786;2023-02-28T17:35:21;13.68;;;12.52;;
16543;SDS011;8384;47.996;7.786;2023-02-28T17:37:47;14.93;;;13.63;;